Wetterdaten: Freitag, 08.10.2010
Datum Zeit Temp. A. Feuchte A. Luftdruck Regen Wind Richtung Richtung Sonnenschein UV Solar Windben
08.10.2010 00:00 15,0 C 91 % 1020,2 hPa 0,0 mm 4,8 km/h (1 Bft) O 90 0 min 0 UV-I 0 W/m 14,5 km/h (3 Bft)
08.10.2010 00:10 14,9 C 90 % 1020,1 hPa 0,0 mm 4,8 km/h (1 Bft) O 90 0 min 0 UV-I 0 W/m 14,5 km/h (3 Bft)
08.10.2010 00:20 14,8 C 90 % 1020,2 hPa 0,0 mm 4,8 km/h (1 Bft) O 90 0 min 0 UV-I 0 W/m 11,3 km/h (2 Bft)
08.10.2010 00:30 14,8 C 89 % 1020,2 hPa 0,0 mm 4,8 km/h (1 Bft) O-SO 112 0 min 0 UV-I 0 W/m 14,5 km/h (3 Bft)
08.10.2010 00:40 14,7 C 89 % 1020,1 hPa 0,0 mm 4,8 km/h (1 Bft) O 90 0 min 0 UV-I 0 W/m 11,3 km/h (2 Bft)
08.10.2010 00:50 14,7 C 89 % 1020,2 hPa 0,0 mm 3,2 km/h (1 Bft) O-SO 112 0 min 0 UV-I 0 W/m 12,9 km/h (3 Bft)
08.10.2010 01:00 14,6 C 88 % 1020,2 hPa 0,0 mm 3,2 km/h (1 Bft) O-SO 112 0 min 0 UV-I 0 W/m 8,0 km/h (2 Bft)
08.10.2010 01:10 14,4 C 88 % 1020,2 hPa 0,0 mm 3,2 km/h (1 Bft) O-SO 112 0 min 0 UV-I 0 W/m 8,0 km/h (2 Bft)
08.10.2010 01:20 14,4 C 88 % 1020,3 hPa 0,0 mm 3,2 km/h (1 Bft) O-SO 112 0 min 0 UV-I 0 W/m 9,7 km/h (2 Bft)
08.10.2010 01:30 14,4 C 88 % 1020,3 hPa 0,0 mm 3,2 km/h (1 Bft) O-SO 112 0 min 0 UV-I 0 W/m 8,0 km/h (2 Bft)
08.10.2010 01:40 14,6 C 88 % 1020,3 hPa 0,0 mm 4,8 km/h (1 Bft) O-SO 112 0 min 0 UV-I 0 W/m 11,3 km/h (2 Bft)
08.10.2010 01:50 14,7 C 88 % 1020,2 hPa 0,0 mm 4,8 km/h (1 Bft) O-SO 112 0 min 0 UV-I 0 W/m 16,1 km/h (3 Bft)
08.10.2010 02:00 14,8 C 88 % 1020,2 hPa 0,0 mm 3,2 km/h (1 Bft) O 90 0 min 0 UV-I 0 W/m 12,9 km/h (3 Bft)
08.10.2010 02:10 14,9 C 87 % 1020,3 hPa 0,0 mm 3,2 km/h (1 Bft) O 90 0 min 0 UV-I 0 W/m 12,9 km/h (3 Bft)
08.10.2010 02:20 15,1 C 86 % 1020,2 hPa 0,0 mm 3,2 km/h (1 Bft) O-SO 112 0 min 0 UV-I 0 W/m 16,1 km/h (3 Bft)
08.10.2010 02:30 15,1 C 86 % 1020,2 hPa 0,0 mm 1,6 km/h (1 Bft) O-SO 112 0 min 0 UV-I 0 W/m 14,5 km/h (3 Bft)
08.10.2010 02:40 15,1 C 85 % 1020,1 hPa 0,0 mm 3,2 km/h (1 Bft) O-SO 112 0 min 0 UV-I 0 W/m 14,5 km/h (3 Bft)
08.10.2010 02:50 15,1 C 85 % 1020,2 hPa 0,0 mm 3,2 km/h (1 Bft) SO 135 0 min 0 UV-I 0 W/m 14,5 km/h (3 Bft)
08.10.2010 03:00 15,1 C 84 % 1020,1 hPa 0,0 mm 4,8 km/h (1 Bft) O-SO 112 0 min 0 UV-I 0 W/m 17,7 km/h (3 Bft)
08.10.2010 03:10 15,1 C 83 % 1020,2 hPa 0,0 mm 3,2 km/h (1 Bft) O-SO 112 0 min 0 UV-I 0 W/m 19,3 km/h (3 Bft)
08.10.2010 03:20 15,1 C 83 % 1020,1 hPa 0,0 mm 3,2 km/h (1 Bft) O-SO 112 0 min 0 UV-I 0 W/m 11,3 km/h (2 Bft)
08.10.2010 03:30 14,9 C 83 % 1020,1 hPa 0,0 mm 3,2 km/h (1 Bft) O-SO 112 0 min 0 UV-I 0 W/m 8,0 km/h (2 Bft)
08.10.2010 03:40 14,6 C 84 % 1020,0 hPa 0,0 mm 1,6 km/h (1 Bft) O 90 0 min 0 UV-I 0 W/m 6,4 km/h (2 Bft)
08.10.2010 03:50 14,4 C 85 % 1020,0 hPa 0,0 mm 1,6 km/h (1 Bft) O 90 0 min 0 UV-I 0 W/m 11,3 km/h (2 Bft)
08.10.2010 04:00 14,3 C 85 % 1020,1 hPa 0,0 mm 0,0 km/h (0 Bft) O-SO 112 0 min 0 UV-I 0 W/m 6,4 km/h (2 Bft)
08.10.2010 04:10 14,2 C 85 % 1020,1 hPa 0,0 mm 1,6 km/h (1 Bft) O-SO 112 0 min 0 UV-I 0 W/m 6,4 km/h (2 Bft)
08.10.2010 04:20 14,2 C 85 % 1020,1 hPa 0,0 mm 1,6 km/h (1 Bft) O-SO 112 0 min 0 UV-I 0 W/m 4,8 km/h (1 Bft)
08.10.2010 04:30 14,2 C 85 % 1020,0 hPa 0,0 mm 1,6 km/h (1 Bft) O-SO 112 0 min 0 UV-I 0 W/m 9,7 km/h (2 Bft)
08.10.2010 04:40 14,2 C 85 % 1019,9 hPa 0,0 mm 1,6 km/h (1 Bft) SO 135 0 min 0 UV-I 0 W/m 8,0 km/h (2 Bft)
08.10.2010 04:50 14,3 C 85 % 1019,9 hPa 0,0 mm 1,6 km/h (1 Bft) SO 135 0 min 0 UV-I 0 W/m 9,7 km/h (2 Bft)
08.10.2010 05:00 14,3 C 85 % 1019,9 hPa 0,0 mm 1,6 km/h (1 Bft) SO 135 0 min 0 UV-I 0 W/m 8,0 km/h (2 Bft)
08.10.2010 05:10 14,4 C 85 % 1019,9 hPa 0,0 mm 3,2 km/h (1 Bft) O-SO 112 0 min 0 UV-I 0 W/m 8,0 km/h (2 Bft)
08.10.2010 05:20 14,5 C 84 % 1019,8 hPa 0,0 mm 3,2 km/h (1 Bft) O-SO 112 0 min 0 UV-I 0 W/m 8,0 km/h (2 Bft)
08.10.2010 05:30 14,6 C 84 % 1019,9 hPa 0,0 mm 3,2 km/h (1 Bft) O-SO 112 0 min 0 UV-I 0 W/m 9,7 km/h (2 Bft)
08.10.2010 05:40 14,7 C 84 % 1019,9 hPa 0,0 mm 3,2 km/h (1 Bft) O-SO 112 0 min 0 UV-I 0 W/m 12,9 km/h (3 Bft)
08.10.2010 05:50 14,7 C 84 % 1019,8 hPa 0,0 mm 1,6 km/h (1 Bft) O-SO 112 0 min 0 UV-I 0 W/m 6,4 km/h (2 Bft)
08.10.2010 06:00 14,8 C 83 % 1019,7 hPa 0,0 mm 1,6 km/h (1 Bft) O-SO 112 0 min 0 UV-I 0 W/m 8,0 km/h (2 Bft)
08.10.2010 06:10 14,8 C 83 % 1019,7 hPa 0,0 mm 3,2 km/h (1 Bft) SO 135 0 min 0 UV-I 0 W/m 16,1 km/h (3 Bft)
08.10.2010 06:20 14,8 C 83 % 1019,6 hPa 0,0 mm 4,8 km/h (1 Bft) O-SO 112 0 min 0 UV-I 0 W/m 14,5 km/h (3 Bft)
08.10.2010 06:30 14,8 C 83 % 1019,6 hPa 0,0 mm 1,6 km/h (1 Bft) O 90 0 min 0 UV-I 0 W/m 9,7 km/h (2 Bft)
08.10.2010 06:40 14,8 C 83 % 1019,5 hPa 0,0 mm 3,2 km/h (1 Bft) O-SO 112 0 min 0 UV-I 0 W/m 16,1 km/h (3 Bft)
08.10.2010 06:50 14,8 C 83 % 1019,5 hPa 0,0 mm 4,8 km/h (1 Bft) O-SO 112 0 min 0 UV-I 0 W/m 16,1 km/h (3 Bft)
08.10.2010 07:00 14,8 C 83 % 1019,5 hPa 0,0 mm 4,8 km/h (1 Bft) O-SO 112 0 min 0 UV-I 0 W/m 16,1 km/h (3 Bft)
08.10.2010 07:10 14,8 C 83 % 1019,3 hPa 0,0 mm 3,2 km/h (1 Bft) SO 135 0 min 0 UV-I 0 W/m 12,9 km/h (3 Bft)
08.10.2010 07:20 14,8 C 83 % 1019,4 hPa 0,0 mm 6,4 km/h (2 Bft) O-SO 112 0 min 0 UV-I 0 W/m 19,3 km/h (3 Bft)
08.10.2010 07:30 14,7 C 83 % 1019,3 hPa 0,0 mm 6,4 km/h (2 Bft) SO 135 0 min 0 UV-I 0 W/m 19,3 km/h (3 Bft)
08.10.2010 07:40 14,7 C 83 % 1019,4 hPa 0,0 mm 6,4 km/h (2 Bft) O-SO 112 0 min 0 UV-I 0 W/m 19,3 km/h (3 Bft)
08.10.2010 07:50 14,6 C 83 % 1019,5 hPa 0,0 mm 3,2 km/h (1 Bft) O-SO 112 0 min 0 UV-I 0 W/m 9,7 km/h (2 Bft)
08.10.2010 08:00 14,6 C 83 % 1019,6 hPa 0,0 mm 4,8 km/h (1 Bft) O-SO 112 0 min 0 UV-I 0 W/m 16,1 km/h (3 Bft)
08.10.2010 08:10 14,4 C 83 % 1019,6 hPa 0,0 mm 6,4 km/h (2 Bft) O-SO 112 0 min 0 UV-I 7 W/m 24,1 km/h (4 Bft)
08.10.2010 08:20 14,4 C 83 % 1019,7 hPa 0,0 mm 4,8 km/h (1 Bft) SO 135 0 min 0 UV-I 11 W/m 16,1 km/h (3 Bft)
08.10.2010 08:30 14,3 C 83 % 1019,6 hPa 0,0 mm 4,8 km/h (1 Bft) O-SO 112 0 min 0 UV-I 21 W/m 16,1 km/h (3 Bft)
08.10.2010 08:40 14,2 C 84 % 1019,7 hPa 0,0 mm 6,4 km/h (2 Bft) O-SO 112 0 min 0 UV-I 26 W/m 19,3 km/h (3 Bft)
08.10.2010 08:50 14,2 C 83 % 1019,9 hPa 0,0 mm 6,4 km/h (2 Bft) SO 135 0 min 0 UV-I 35 W/m 17,7 km/h (3 Bft)
08.10.2010 09:00 14,1 C 83 % 1019,9 hPa 0,0 mm 8,0 km/h (2 Bft) O-SO 112 0 min 0 UV-I 26 W/m 24,1 km/h (4 Bft)
08.10.2010 09:10 14,1 C 84 % 1020,1 hPa 0,0 mm 6,4 km/h (2 Bft) O 90 0 min 0 UV-I 26 W/m 17,7 km/h (3 Bft)
08.10.2010 09:20 14,1 C 84 % 1020,1 hPa 0,0 mm 6,4 km/h (2 Bft) O-SO 112 0 min 0 UV-I 32 W/m 19,3 km/h (3 Bft)
08.10.2010 09:30 14,0 C 84 % 1020,1 hPa 0,0 mm 3,2 km/h (1 Bft) O-SO 112 0 min 0 UV-I 42 W/m 19,3 km/h (3 Bft)
08.10.2010 09:40 14,0 C 84 % 1020,3 hPa 0,0 mm 1,6 km/h (1 Bft) O 90 0 min 0 UV-I 39 W/m 9,7 km/h (2 Bft)
08.10.2010 09:50 14,1 C 84 % 1020,4 hPa 0,0 mm 1,6 km/h (1 Bft) O-SO 112 0 min 0 UV-I 53 W/m 8,0 km/h (2 Bft)
08.10.2010 10:00 14,1 C 84 % 1020,4 hPa 0,0 mm 1,6 km/h (1 Bft) S 180 0 min 0 UV-I 51 W/m 6,4 km/h (2 Bft)
08.10.2010 10:10 14,1 C 84 % 1020,5 hPa 0,0 mm 3,2 km/h (1 Bft) O-SO 112 0 min 0 UV-I 54 W/m 11,3 km/h (2 Bft)
08.10.2010 10:20 14,2 C 84 % 1020,5 hPa 0,0 mm 4,8 km/h (1 Bft) O-SO 112 0 min 1 UV-I 67 W/m 16,1 km/h (3 Bft)
08.10.2010 10:30 14,2 C 84 % 1020,6 hPa 0,0 mm 6,4 km/h (2 Bft) O-SO 112 0 min 1 UV-I 79 W/m 17,7 km/h (3 Bft)
08.10.2010 10:40 14,2 C 84 % 1020,7 hPa 0,0 mm 6,4 km/h (2 Bft) O-SO 112 0 min 1 UV-I 98 W/m 16,1 km/h (3 Bft)
08.10.2010 10:50 14,3 C 84 % 1020,8 hPa 0,0 mm 3,2 km/h (1 Bft) SO 135 0 min 1 UV-I 109 W/m 16,1 km/h (3 Bft)
08.10.2010 11:00 14,3 C 84 % 1020,8 hPa 0,0 mm 1,6 km/h (1 Bft) SO 135 0 min 1 UV-I 91 W/m 9,7 km/h (2 Bft)
08.10.2010 11:10 14,4 C 83 % 1020,9 hPa 0,0 mm 1,6 km/h (1 Bft) SO 135 0 min 1 UV-I 81 W/m 8,0 km/h (2 Bft)
08.10.2010 11:20 14,5 C 83 % 1020,9 hPa 0,0 mm 3,2 km/h (1 Bft) O-SO 112 0 min 1 UV-I 77 W/m 9,7 km/h (2 Bft)
08.10.2010 11:30 14,6 C 83 % 1020,9 hPa 0,0 mm 3,2 km/h (1 Bft) O-SO 112 0 min 1 UV-I 81 W/m 9,7 km/h (2 Bft)
08.10.2010 11:40 14,7 C 83 % 1020,8 hPa 0,0 mm 3,2 km/h (1 Bft) O 90 0 min 1 UV-I 104 W/m 12,9 km/h (3 Bft)
08.10.2010 11:50 14,7 C 82 % 1020,8 hPa 0,0 mm 4,8 km/h (1 Bft) O-SO 112 0 min 1 UV-I 100 W/m 16,1 km/h (3 Bft)
08.10.2010 12:00 14,8 C 82 % 1020,7 hPa 0,0 mm 3,2 km/h (1 Bft) O-SO 112 0 min 1 UV-I 100 W/m 9,7 km/h (2 Bft)
08.10.2010 12:10 14,8 C 82 % 1020,8 hPa 0,0 mm 4,8 km/h (1 Bft) O-SO 112 0 min 1 UV-I 100 W/m 16,1 km/h (3 Bft)
08.10.2010 12:20 14,9 C 82 % 1020,9 hPa 0,0 mm 3,2 km/h (1 Bft) SO 135 0 min 1 UV-I 97 W/m 12,9 km/h (3 Bft)
08.10.2010 12:30 15,0 C 82 % 1020,9 hPa 0,0 mm 3,2 km/h (1 Bft) SO 135 0 min 1 UV-I 97 W/m 11,3 km/h (2 Bft)
08.10.2010 12:40 15,1 C 82 % 1020,8 hPa 0,0 mm 3,2 km/h (1 Bft) O 90 0 min 1 UV-I 113 W/m 11,3 km/h (2 Bft)
08.10.2010 12:50 15,1 C 82 % 1020,8 hPa 0,0 mm 3,2 km/h (1 Bft) O 90 0 min 1 UV-I 128 W/m 17,7 km/h (3 Bft)
08.10.2010 13:00 15,1 C 81 % 1020,7 hPa 0,0 mm 4,8 km/h (1 Bft) O-SO 112 0 min 1 UV-I 144 W/m 19,3 km/h (3 Bft)
08.10.2010 13:10 15,2 C 81 % 1020,7 hPa 0,0 mm 3,2 km/h (1 Bft) O 90 0 min 1 UV-I 146 W/m 12,9 km/h (3 Bft)
08.10.2010 13:20 15,3 C 80 % 1020,7 hPa 0,0 mm 4,8 km/h (1 Bft) O-SO 112 0 min 1 UV-I 139 W/m 16,1 km/h (3 Bft)
08.10.2010 13:30 15,3 C 80 % 1020,5 hPa 0,0 mm 4,8 km/h (1 Bft) O 90 0 min 1 UV-I 139 W/m 16,1 km/h (3 Bft)
08.10.2010 13:40 15,4 C 79 % 1020,5 hPa 0,0 mm 6,4 km/h (2 Bft) O-SO 112 0 min 1 UV-I 144 W/m 17,7 km/h (3 Bft)
08.10.2010 13:50 15,5 C 80 % 1020,4 hPa 0,0 mm 6,4 km/h (2 Bft) O 90 0 min 2 UV-I 178 W/m 16,1 km/h (3 Bft)
08.10.2010 14:00 15,8 C 79 % 1020,2 hPa 0,0 mm 4,8 km/h (1 Bft) O 90 10 min 3 UV-I 564 W/m 11,3 km/h (2 Bft)
08.10.2010 14:10 16,8 C 75 % 1020,1 hPa 0,0 mm 4,8 km/h (1 Bft) O-SO 112 10 min 3 UV-I 578 W/m 17,7 km/h (3 Bft)
08.10.2010 14:20 16,8 C 76 % 1020,0 hPa 0,0 mm 4,8 km/h (1 Bft) O 90 10 min 3 UV-I 591 W/m 19,3 km/h (3 Bft)
08.10.2010 14:30 17,6 C 73 % 1019,7 hPa 0,0 mm 3,2 km/h (1 Bft) SO 135 10 min 3 UV-I 559 W/m 16,1 km/h (3 Bft)
08.10.2010 14:40 17,9 C 72 % 1019,6 hPa 0,0 mm 3,2 km/h (1 Bft) O-SO 112 10 min 3 UV-I 547 W/m 9,7 km/h (2 Bft)
08.10.2010 14:50 18,2 C 71 % 1019,6 hPa 0,0 mm 4,8 km/h (1 Bft) O-SO 112 10 min 2 UV-I 524 W/m 14,5 km/h (3 Bft)
08.10.2010 15:00 18,3 C 71 % 1019,3 hPa 0,0 mm 4,8 km/h (1 Bft) S-SO 157 10 min 2 UV-I 524 W/m 16,1 km/h (3 Bft)
08.10.2010 15:10 18,7 C 70 % 1019,3 hPa 0,0 mm 3,2 km/h (1 Bft) O 90 10 min 2 UV-I 501 W/m 16,1 km/h (3 Bft)
08.10.2010 15:20 18,9 C 70 % 1019,3 hPa 0,0 mm 4,8 km/h (1 Bft) O 90 10 min 2 UV-I 519 W/m 14,5 km/h (3 Bft)
08.10.2010 15:30 19,1 C 69 % 1019,3 hPa 0,0 mm 4,8 km/h (1 Bft) O 90 10 min 2 UV-I 520 W/m 11,3 km/h (2 Bft)
08.10.2010 15:40 19,3 C 69 % 1019,3 hPa 0,0 mm 4,8 km/h (1 Bft) O 90 10 min 2 UV-I 473 W/m 14,5 km/h (3 Bft)
08.10.2010 15:50 19,2 C 68 % 1019,2 hPa 0,0 mm 3,2 km/h (1 Bft) SO 135 10 min 2 UV-I 454 W/m 16,1 km/h (3 Bft)
08.10.2010 16:00 19,2 C 69 % 1019,2 hPa 0,0 mm 3,2 km/h (1 Bft) SO 135 10 min 2 UV-I 394 W/m 8,0 km/h (2 Bft)
08.10.2010 16:10 19,0 C 69 % 1019,2 hPa 0,0 mm 4,8 km/h (1 Bft) O-SO 112 10 min 1 UV-I 388 W/m 11,3 km/h (2 Bft)
08.10.2010 16:20 18,9 C 67 % 1019,2 hPa 0,0 mm 3,2 km/h (1 Bft) O 90 10 min 1 UV-I 350 W/m 11,3 km/h (2 Bft)
08.10.2010 16:30 18,9 C 64 % 1019,1 hPa 0,0 mm 4,8 km/h (1 Bft) O 90 10 min 1 UV-I 318 W/m 11,3 km/h (2 Bft)
08.10.2010 16:40 19,0 C 62 % 1019,1 hPa 0,0 mm 6,4 km/h (2 Bft) O 90 10 min 1 UV-I 302 W/m 14,5 km/h (3 Bft)
08.10.2010 16:50 18,8 C 61 % 1019,1 hPa 0,0 mm 4,8 km/h (1 Bft) O-SO 112 10 min 1 UV-I 283 W/m 16,1 km/h (3 Bft)
08.10.2010 17:00 18,7 C 62 % 1018,9 hPa 0,0 mm 6,4 km/h (2 Bft) O 90 10 min 1 UV-I 262 W/m 19,3 km/h (3 Bft)
08.10.2010 17:10 18,7 C 62 % 1019,0 hPa 0,0 mm 6,4 km/h (2 Bft) O-SO 112 10 min 1 UV-I 237 W/m 16,1 km/h (3 Bft)
08.10.2010 17:20 18,7 C 64 % 1018,8 hPa 0,0 mm 4,8 km/h (1 Bft) O 90 10 min 1 UV-I 214 W/m 14,5 km/h (3 Bft)
08.10.2010 17:30 18,4 C 64 % 1018,8 hPa 0,0 mm 3,2 km/h (1 Bft) O-SO 112 10 min 1 UV-I 188 W/m 14,5 km/h (3 Bft)
08.10.2010 17:40 18,3 C 65 % 1018,9 hPa 0,0 mm 3,2 km/h (1 Bft) O 90 10 min 1 UV-I 160 W/m 11,3 km/h (2 Bft)
08.10.2010 17:50 17,9 C 66 % 1019,1 hPa 0,0 mm 3,2 km/h (1 Bft) O 90 10 min 0 UV-I 137 W/m 9,7 km/h (2 Bft)
08.10.2010 18:00 17,7 C 66 % 1019,1 hPa 0,0 mm 3,2 km/h (1 Bft) O-SO 112 10 min 0 UV-I 111 W/m 9,7 km/h (2 Bft)
08.10.2010 18:10 17,3 C 68 % 1019,1 hPa 0,0 mm 3,2 km/h (1 Bft) O 90 10 min 0 UV-I 77 W/m 9,7 km/h (2 Bft)
08.10.2010 18:20 16,7 C 70 % 1019,1 hPa 0,0 mm 1,6 km/h (1 Bft) O 90 10 min 0 UV-I 33 W/m 4,8 km/h (1 Bft)
08.10.2010 18:30 16,3 C 72 % 1019,2 hPa 0,0 mm 1,6 km/h (1 Bft) O 90 0 min 0 UV-I 16 W/m 6,4 km/h (2 Bft)
08.10.2010 18:40 15,8 C 74 % 1019,2 hPa 0,0 mm 0,0 km/h (0 Bft) O 90 0 min 0 UV-I 11 W/m 4,8 km/h (1 Bft)
08.10.2010 18:50 15,3 C 75 % 1019,3 hPa 0,0 mm 1,6 km/h (1 Bft) O 90 0 min 0 UV-I 7 W/m 4,8 km/h (1 Bft)
08.10.2010 19:00 14,9 C 76 % 1019,3 hPa 0,0 mm 0,0 km/h (0 Bft) O 90 0 min 0 UV-I 0 W/m 3,2 km/h (1 Bft)
08.10.2010 19:10 14,5 C 78 % 1019,3 hPa 0,0 mm 0,0 km/h (0 Bft) O 90 0 min 0 UV-I 0 W/m 3,2 km/h (1 Bft)
08.10.2010 19:20 14,2 C 78 % 1019,3 hPa 0,0 mm 0,0 km/h (0 Bft) O 90 0 min 0 UV-I 0 W/m 3,2 km/h (1 Bft)
08.10.2010 19:30 13,9 C 79 % 1019,3 hPa 0,0 mm 0,0 km/h (0 Bft) O 90 0 min 0 UV-I 0 W/m 3,2 km/h (1 Bft)
08.10.2010 19:40 13,7 C 80 % 1019,3 hPa 0,0 mm 0,0 km/h (0 Bft) O 90 0 min 0 UV-I 0 W/m 4,8 km/h (1 Bft)
08.10.2010 19:50 13,4 C 80 % 1019,4 hPa 0,0 mm 0,0 km/h (0 Bft) O 90 0 min 0 UV-I 0 W/m 4,8 km/h (1 Bft)
08.10.2010 20:00 13,2 C 81 % 1019,3 hPa 0,0 mm 0,0 km/h (0 Bft) O 90 0 min 0 UV-I 0 W/m 4,8 km/h (1 Bft)
08.10.2010 20:10 13,0 C 81 % 1019,3 hPa 0,0 mm 0,0 km/h (0 Bft) O-NO 67 0 min 0 UV-I 0 W/m 4,8 km/h (1 Bft)
08.10.2010 20:20 12,9 C 81 % 1019,3 hPa 0,0 mm 0,0 km/h (0 Bft) O-NO 67 0 min 0 UV-I 0 W/m 3,2 km/h (1 Bft)
08.10.2010 20:30 12,8 C 81 % 1019,4 hPa 0,0 mm 0,0 km/h (0 Bft) O-NO 67 0 min 0 UV-I 0 W/m 3,2 km/h (1 Bft)
08.10.2010 20:40 12,7 C 82 % 1019,4 hPa 0,0 mm 0,0 km/h (0 Bft) O-NO 67 0 min 0 UV-I 0 W/m 6,4 km/h (2 Bft)
08.10.2010 20:50 12,6 C 82 % 1019,5 hPa 0,0 mm 0,0 km/h (0 Bft) O-NO 67 0 min 0 UV-I 0 W/m 3,2 km/h (1 Bft)
08.10.2010 21:00 12,3 C 83 % 1019,4 hPa 0,0 mm 0,0 km/h (0 Bft) O-NO 67 0 min 0 UV-I 0 W/m 3,2 km/h (1 Bft)
08.10.2010 21:10 12,3 C 83 % 1019,4 hPa 0,0 mm 1,6 km/h (1 Bft) O-SO 112 0 min 0 UV-I 0 W/m 8,0 km/h (2 Bft)
08.10.2010 21:20 12,3 C 82 % 1019,4 hPa 0,0 mm 1,6 km/h (1 Bft) O 90 0 min 0 UV-I 0 W/m 8,0 km/h (2 Bft)
08.10.2010 21:30 12,3 C 82 % 1019,4 hPa 0,0 mm 1,6 km/h (1 Bft) O 90 0 min 0 UV-I 0 W/m 6,4 km/h (2 Bft)
08.10.2010 21:40 12,4 C 82 % 1019,4 hPa 0,0 mm 1,6 km/h (1 Bft) O 90 0 min 0 UV-I 0 W/m 8,0 km/h (2 Bft)
08.10.2010 21:50 12,5 C 82 % 1019,4 hPa 0,0 mm 1,6 km/h (1 Bft) O 90 0 min 0 UV-I 0 W/m 8,0 km/h (2 Bft)
08.10.2010 22:00 12,5 C 81 % 1019,4 hPa 0,0 mm 1,6 km/h (1 Bft) O 90 0 min 0 UV-I 0 W/m 8,0 km/h (2 Bft)
08.10.2010 22:10 12,5 C 81 % 1019,5 hPa 0,0 mm 1,6 km/h (1 Bft) O 90 0 min 0 UV-I 0 W/m 9,7 km/h (2 Bft)
08.10.2010 22:20 12,6 C 81 % 1019,5 hPa 0,0 mm 3,2 km/h (1 Bft) O 90 0 min 0 UV-I 0 W/m 9,7 km/h (2 Bft)
08.10.2010 22:30 12,7 C 80 % 1019,5 hPa 0,0 mm 3,2 km/h (1 Bft) O-SO 112 0 min 0 UV-I 0 W/m 9,7 km/h (2 Bft)
08.10.2010 22:40 12,7 C 79 % 1019,5 hPa 0,0 mm 3,2 km/h (1 Bft) O-SO 112 0 min 0 UV-I 0 W/m 11,3 km/h (2 Bft)
08.10.2010 22:50 12,7 C 79 % 1019,6 hPa 0,0 mm 3,2 km/h (1 Bft) O-SO 112 0 min 0 UV-I 0 W/m 9,7 km/h (2 Bft)
08.10.2010 23:00 12,7 C 79 % 1019,5 hPa 0,0 mm 1,6 km/h (1 Bft) O-SO 112 0 min 0 UV-I 0 W/m 9,7 km/h (2 Bft)
08.10.2010 23:10 12,5 C 79 % 1019,5 hPa 0,0 mm 1,6 km/h (1 Bft) O-SO 112 0 min 0 UV-I 0 W/m 6,4 km/h (2 Bft)
08.10.2010 23:20 12,4 C 80 % 1019,5 hPa 0,0 mm 1,6 km/h (1 Bft) O 90 0 min 0 UV-I 0 W/m 6,4 km/h (2 Bft)
08.10.2010 23:30 12,2 C 80 % 1019,5 hPa 0,0 mm 1,6 km/h (1 Bft) O 90 0 min 0 UV-I 0 W/m 4,8 km/h (1 Bft)
08.10.2010 23:40 12,2 C 80 % 1019,5 hPa 0,0 mm 1,6 km/h (1 Bft) O 90 0 min 0 UV-I 0 W/m 6,4 km/h (2 Bft)
08.10.2010 23:50 12,1 C 81 % 1019,4 hPa 0,0 mm 1,6 km/h (1 Bft) O 90 0 min 0 UV-I 0 W/m 8,0 km/h (2 Bft)
_ Min-Zeit 23:50 16:50 17:20 - 04:00 - - - - - 19:00
Minimum _ 12,1 C 61 % 1018,8 hPa - 0,0 km/h (0 Bft) - - - - - 3,2 km/h (1 Bft)
_ Max-Zeit 15:30 00:00 11:10 00:00 09:00 - - 14:00 14:00 14:20 08:10
Maximum _ 19,4 C 91 % 1020,9 hPa 0,0 mm 8,0 km/h
O-SO (2 Bft)
- - 10 min 3 UV-I 591 W/m 24,1 km/h
O-SO (4 Bft)
Durchschnitt _ 15,0 C 80 % 1019,8 hPa #0,0 mm 3,2 km/h (1 Bft) O-SO - #4:30 h 1 UV-I 195 W/m 11,6 km/h (2 Bft)